Time;durP1;ratioP1;P1;durP2;ratioP2;P2;SDS_P1;SDS_P2;PMS_P1;PMS_P2;Temp;Humidity;BMP_temperature;BMP_pressure;BME280_temperature;BME280_humidity;BME280_pressure;Samples;Min_cycle;Max_cycle;Signal;HPM_P1;HPM_P2
2022/04/19 00:01:38;;;;;;;;;;;11.60;90.40;;;;;;6135630;23;19921;-88
2022/04/19 00:04:08;;;;;;;;;;;11.60;90.60;;;;;;6163091;23;19927;-87
2022/04/19 00:06:36;;;;;;;;;;;11.50;90.50;;;;;;6158477;23;20012;-87
2022/04/19 00:09:03;;;;;;;;;;;11.50;90.80;;;;;;6135580;23;19927;-87
2022/04/19 00:11:31;;;;;;;;;;;11.50;90.70;;;;;;6135834;23;19921;-87
2022/04/19 00:13:59;;;;;;;;;;;11.40;90.70;;;;;;6133356;23;19927;-87
2022/04/19 00:16:27;;;;;;;;;;;11.40;90.90;;;;;;6110000;23;20352;-88
2022/04/19 00:18:55;;;;;;;;;;;11.40;91.30;;;;;;6133286;23;19925;-86
2022/04/19 00:21:23;;;;;;;;;;;11.30;91.10;;;;;;6137812;23;20194;-87
2022/04/19 00:23:54;;;;;;;;;;;11.20;91.20;;;;;;6166331;23;19921;-87
2022/04/19 00:26:26;;;;;;;;;;;11.30;91.60;;;;;;6166302;23;19921;-87
2022/04/19 00:28:54;;;;;;;;;;;11.20;91.40;;;;;;6137394;23;19931;-86
2022/04/19 00:31:22;;;;;;;;;;;11.20;91.50;;;;;;6168819;23;19917;-87
2022/04/19 00:33:53;;;;;;;;;;;11.20;91.60;;;;;;6164918;23;19921;-87
2022/04/19 00:36:23;;;;;;;;;;;11.20;91.50;;;;;;6136115;23;19931;-87
2022/04/19 00:38:51;;;;;;;;;;;11.10;91.70;;;;;;6133302;23;19921;-87
2022/04/19 00:41:19;;;;;;;;;;;11.10;91.80;;;;;;6154269;23;19921;-87
2022/04/19 00:43:47;;;;;;;;;;;11.00;91.70;;;;;;6152653;23;19925;-88
2022/04/19 00:46:16;;;;;;;;;;;11.00;91.90;;;;;;6154805;23;19921;-88
2022/04/19 00:48:45;;;;;;;;;;;11.00;92.40;;;;;;6158641;23;19924;-88
2022/04/19 00:51:17;;;;;;;;;;;11.00;92.00;;;;;;6124336;23;19925;-87
2022/04/19 00:53:47;;;;;;;;;;;10.90;91.90;;;;;;6137138;23;19927;-86
2022/04/19 00:56:16;;;;;;;;;;;10.90;91.90;;;;;;6132662;23;19921;-87
2022/04/19 00:58:44;;;;;;;;;;;10.80;92.00;;;;;;6132404;23;19925;-88
2022/04/19 01:01:11;;;;;;;;;;;10.80;92.20;;;;;;6131927;23;19928;-87
2022/04/19 01:03:41;;;;;;;;;;;10.80;92.20;;;;;;6133881;23;19920;-87
2022/04/19 01:06:18;;;;;;;;;;;10.80;92.20;;;;;;6157029;23;19928;-87
2022/04/19 01:08:48;;;;;;;;;;;10.70;92.30;;;;;;6128433;23;19921;-87
2022/04/19 01:14:17;;;;;;;;;;;10.70;92.40;;;;;;6111686;23;20487;-88
2022/04/19 01:16:45;;;;;;;;;;;10.70;92.70;;;;;;6102827;23;19921;-87
2022/04/19 01:19:15;;;;;;;;;;;10.60;92.40;;;;;;6127749;23;20253;-87
2022/04/19 01:21:49;;;;;;;;;;;10.60;92.30;;;;;;6132450;23;19921;-86
2022/04/19 01:24:25;;;;;;;;;;;10.70;93.10;;;;;;6107626;23;19921;-87
2022/04/19 01:26:54;;;;;;;;;;;10.60;92.90;;;;;;6130114;23;19925;-88
2022/04/19 01:29:24;;;;;;;;;;;10.60;93.20;;;;;;6156676;23;19921;-87
2022/04/19 01:31:53;;;;;;;;;;;10.60;92.90;;;;;;6134106;23;19921;-86
2022/04/19 01:34:24;;;;;;;;;;;10.60;93.00;;;;;;6129280;23;19926;-87
2022/04/19 01:36:58;;;;;;;;;;;10.60;93.20;;;;;;6158219;23;20315;-86
2022/04/19 01:42:19;;;;;;;;;;;10.50;93.10;;;;;;6157164;23;19931;-87
2022/04/19 01:48:12;;;;;;;;;;;10.40;94.20;;;;;;6110439;23;20337;-87
2022/04/19 01:50:42;;;;;;;;;;;10.40;94.00;;;;;;6157603;23;19920;-87
2022/04/19 01:53:12;;;;;;;;;;;10.30;93.80;;;;;;6108247;23;19921;-87
2022/04/19 01:55:42;;;;;;;;;;;10.30;94.70;;;;;;6132768;23;19921;-87
2022/04/19 01:58:29;;;;;;;;;;;10.20;94.60;;;;;;6157693;23;19921;-87
2022/04/19 02:00:58;;;;;;;;;;;10.10;94.40;;;;;;6109001;23;19927;-88
2022/04/19 02:03:54;;;;;;;;;;;10.00;94.60;;;;;;6144337;23;19921;-86
2022/04/19 02:06:28;;;;;;;;;;;10.00;94.30;;;;;;6162166;23;19921;-87
2022/04/19 02:08:57;;;;;;;;;;;10.00;94.60;;;;;;6142921;23;20172;-86
2022/04/19 02:11:26;;;;;;;;;;;10.70;94.80;;;;;;6170428;23;19935;-86
2022/04/19 02:14:11;;;;;;;;;;;10.00;94.50;;;;;;6167282;23;19932;-87
2022/04/19 02:16:43;;;;;;;;;;;9.90;94.50;;;;;;6146229;23;19909;-86
2022/04/19 02:19:11;;;;;;;;;;;9.90;94.60;;;;;;6149242;23;19921;-87
2022/04/19 02:21:39;;;;;;;;;;;9.90;95.00;;;;;;6148401;23;19927;-87
2022/04/19 02:24:10;;;;;;;;;;;9.90;94.80;;;;;;6150217;23;19957;-87
2022/04/19 02:26:39;;;;;;;;;;;9.90;94.80;;;;;;6149590;23;19911;-85
2022/04/19 02:29:07;;;;;;;;;;;9.90;95.30;;;;;;6172492;23;19909;-87
2022/04/19 02:31:39;;;;;;;;;;;9.90;94.90;;;;;;6172162;23;19909;-87
2022/04/19 02:34:29;;;;;;;;;;;9.90;94.90;;;;;;6171796;23;19915;-87
2022/04/19 02:36:57;;;;;;;;;;;9.90;95.10;;;;;;6121760;23;19909;-86
2022/04/19 02:39:28;;;;;;;;;;;9.90;95.30;;;;;;6147615;23;19933;-87
2022/04/19 02:41:59;;;;;;;;;;;9.80;95.20;;;;;;6143014;23;19909;-87
2022/04/19 02:44:27;;;;;;;;;;;9.80;95.30;;;;;;6135302;23;19921;-87
2022/04/19 02:47:07;;;;;;;;;;;9.80;95.60;;;;;;6131980;23;19940;-86
2022/04/19 02:49:41;;;;;;;;;;;9.80;95.40;;;;;;6133477;23;19921;-86
2022/04/19 02:52:10;;;;;;;;;;;9.70;95.50;;;;;;6131429;23;19928;-86
2022/04/19 02:54:39;;;;;;;;;;;9.70;95.50;;;;;;6131028;23;19927;-86
2022/04/19 02:57:09;;;;;;;;;;;9.60;95.50;;;;;;6130180;23;19931;-87
2022/04/19 02:59:37;;;;;;;;;;;9.60;95.90;;;;;;6158636;23;20562;-87
2022/04/19 03:02:05;;;;;;;;;;;9.50;96.00;;;;;;6134564;23;19932;-87
2022/04/19 03:04:34;;;;;;;;;;;9.50;96.20;;;;;;6116783;23;19927;-86
2022/04/19 03:07:06;;;;;;;;;;;9.30;96.40;;;;;;6139192;23;19931;-87
2022/04/19 03:09:34;;;;;;;;;;;9.30;97.00;;;;;;6137896;23;19921;-87
2022/04/19 03:12:04;;;;;;;;;;;9.20;96.80;;;;;;6159912;23;19925;-85
2022/04/19 03:14:35;;;;;;;;;;;9.10;97.10;;;;;;6131222;23;19927;-86
2022/04/19 03:17:09;;;;;;;;;;;9.10;97.40;;;;;;6156170;23;19928;-87
2022/04/19 03:19:40;;;;;;;;;;;9.00;98.00;;;;;;6154360;23;19921;-87
2022/04/19 03:22:08;;;;;;;;;;;8.90;97.80;;;;;;6156169;23;19925;-86
2022/04/19 03:29:57;;;;;;;;;;;8.80;99.30;;;;;;6130941;23;19960;-85
2022/04/19 03:32:25;;;;;;;;;;;8.70;99.40;;;;;;6136444;23;19921;-85
2022/04/19 03:34:54;;;;;;;;;;;8.60;99.00;;;;;;6130797;23;19928;-86
2022/04/19 03:37:22;;;;;;;;;;;8.60;99.40;;;;;;6106626;23;20356;-86
2022/04/19 03:39:50;;;;;;;;;;;8.50;99.30;;;;;;6155471;23;19920;-85
2022/04/19 03:42:19;;;;;;;;;;;7.20;99.40;;;;;;6154523;23;20249;-87
2022/04/19 03:44:50;;;;;;;;;;;8.50;99.50;;;;;;6154153;23;19921;-86
2022/04/19 03:47:20;;;;;;;;;;;8.40;99.30;;;;;;6132215;23;19921;-86
2022/04/19 03:49:52;;;;;;;;;;;8.40;99.50;;;;;;6130428;23;19921;-87
2022/04/19 03:52:19;;;;;;;;;;;8.30;99.90;;;;;;6129938;23;19921;-88
2022/04/19 03:54:48;;;;;;;;;;;8.30;99.60;;;;;;6134392;23;19925;-86
2022/04/19 03:57:18;;;;;;;;;;;8.30;99.20;;;;;;6106630;23;19928;-87
2022/04/19 03:59:46;;;;;;;;;;;8.30;99.30;;;;;;6155180;23;19925;-87
2022/04/19 04:02:21;;;;;;;;;;;6.90;99.90;;;;;;6107994;23;19921;-86
2022/04/19 04:04:49;;;;;;;;;;;8.30;99.90;;;;;;6153985;23;19928;-86
2022/04/19 04:07:16;;;;;;;;;;;8.30;99.90;;;;;;6154666;23;19925;-86
2022/04/19 04:09:44;;;;;;;;;;;8.20;99.90;;;;;;6154590;23;19921;-87
2022/04/19 04:12:12;;;;;;;;;;;8.20;99.80;;;;;;6134013;23;19929;-85
2022/04/19 04:14:41;;;;;;;;;;;8.20;99.80;;;;;;6154503;23;19928;-86
2022/04/19 04:17:10;;;;;;;;;;;8.20;99.90;;;;;;6156361;23;19920;-88
2022/04/19 04:19:43;;;;;;;;;;;8.30;99.80;;;;;;6129494;23;20476;-86
2022/04/19 04:22:16;;;;;;;;;;;8.30;99.90;;;;;;6154871;23;19925;-86
2022/04/19 04:24:45;;;;;;;;;;;8.30;99.90;;;;;;6153885;23;19932;-87
2022/04/19 04:27:15;;;;;;;;;;;8.20;99.90;;;;;;6157220;23;19921;-87
2022/04/19 04:29:42;;;;;;;;;;;8.20;99.90;;;;;;6154697;23;20421;-87
2022/04/19 04:32:11;;;;;;;;;;;8.20;99.90;;;;;;6107151;23;19921;-88
2022/04/19 04:34:40;;;;;;;;;;;8.10;99.90;;;;;;6133880;23;19921;-87
2022/04/19 04:37:10;;;;;;;;;;;8.30;99.90;;;;;;6159214;23;19921;-87
2022/04/19 04:39:44;;;;;;;;;;;8.20;99.90;;;;;;6154314;23;19921;-88
2022/04/19 04:42:28;;;;;;;;;;;8.20;99.90;;;;;;6131591;23;19920;-88
2022/04/19 04:45:08;;;;;;;;;;;8.20;99.90;;;;;;6131627;23;19925;-86
2022/04/19 04:50:26;;;;;;;;;;;8.20;99.90;;;;;;6169444;23;19909;-86
2022/04/19 04:52:56;;;;;;;;;;;8.30;99.90;;;;;;6170135;23;19931;-87
2022/04/19 04:55:28;;;;;;;;;;;8.30;99.90;;;;;;6173406;23;19920;-87
2022/04/19 04:58:01;;;;;;;;;;;8.30;99.90;;;;;;6140841;23;19921;-87
2022/04/19 05:00:31;;;;;;;;;;;8.30;99.90;;;;;;6165476;23;19921;-86
2022/04/19 05:03:10;;;;;;;;;;;8.20;99.90;;;;;;6165927;23;19921;-85
2022/04/19 05:05:42;;;;;;;;;;;8.20;99.90;;;;;;6116004;23;19931;-87
2022/04/19 05:08:26;;;;;;;;;;;8.20;99.90;;;;;;6139518;23;19921;-87
2022/04/19 05:11:03;;;;;;;;;;;8.30;99.90;;;;;;6162822;23;19952;-87
2022/04/19 05:13:34;;;;;;;;;;;8.90;99.90;;;;;;6109837;23;19921;-88
2022/04/19 05:16:12;;;;;;;;;;;8.30;99.90;;;;;;6142529;23;19925;-88
2022/04/19 05:19:19;;;;;;;;;;;8.30;99.90;;;;;;6150017;23;19924;-86
2022/04/19 05:21:51;;;;;;;;;;;8.30;99.90;;;;;;6169806;23;19920;-86
2022/04/19 05:24:20;;;;;;;;;;;8.30;99.90;;;;;;6141940;23;19921;-86
2022/04/19 05:26:49;;;;;;;;;;;8.30;99.90;;;;;;6158596;23;19909;-86
2022/04/19 05:29:22;;;;;;;;;;;8.30;99.90;;;;;;6172290;23;19928;-87
2022/04/19 05:31:55;;;;;;;;;;;8.30;99.90;;;;;;6174075;23;19924;-87
2022/04/19 05:34:27;;;;;;;;;;;8.30;99.90;;;;;;6145750;23;19920;-87
2022/04/19 05:37:07;;;;;;;;;;;8.30;99.90;;;;;;6165152;23;19921;-86
2022/04/19 05:39:40;;;;;;;;;;;8.30;99.90;;;;;;6132962;23;19947;-87
2022/04/19 05:42:17;;;;;;;;;;;8.30;99.90;;;;;;6158779;23;19931;-89
2022/04/19 05:45:08;;;;;;;;;;;8.70;99.90;;;;;;6160106;23;19927;-86
2022/04/19 05:47:41;;;;;;;;;;;8.30;99.90;;;;;;6141091;23;19927;-86
2022/04/19 05:50:24;;;;;;;;;;;8.40;99.90;;;;;;6141324;23;19921;-87
2022/04/19 05:53:02;;;;;;;;;;;8.40;99.90;;;;;;6158906;23;20334;-86
2022/04/19 05:55:37;;;;;;;;;;;8.40;99.90;;;;;;6162328;23;19928;-88
2022/04/19 05:58:06;;;;;;;;;;;8.50;99.90;;;;;;6162313;23;19927;-85
2022/04/19 06:00:39;;;;;;;;;;;8.50;99.90;;;;;;6163690;23;19925;-85
2022/04/19 06:05:55;;;;;;;;;;;8.50;99.90;;;;;;6154977;23;19925;-86
2022/04/19 06:08:26;;;;;;;;;;;8.50;99.90;;;;;;6157018;23;19946;-85
2022/04/19 06:11:03;;;;;;;;;;;8.60;99.90;;;;;;6159079;23;19932;-85
2022/04/19 06:13:33;;;;;;;;;;;8.50;99.90;;;;;;6131132;23;19947;-84
2022/04/19 06:16:04;;;;;;;;;;;8.60;99.90;;;;;;6157217;23;19924;-86
2022/04/19 06:18:50;;;;;;;;;;;8.60;99.90;;;;;;6158697;23;19931;-86
2022/04/19 06:21:24;;;;;;;;;;;8.50;99.90;;;;;;6132653;23;19927;-87
2022/04/19 06:23:53;;;;;;;;;;;8.70;99.90;;;;;;6160120;23;19925;-86
2022/04/19 06:26:24;;;;;;;;;;;7.90;99.90;;;;;;6133041;23;19931;-87
2022/04/19 06:29:06;;;;;;;;;;;8.80;99.90;;;;;;6129790;23;20261;-87
2022/04/19 06:31:40;;;;;;;;;;;8.80;99.90;;;;;;6159750;23;19921;-86
2022/04/19 06:34:26;;;;;;;;;;;8.90;99.90;;;;;;6157730;23;19925;-87
2022/04/19 06:37:05;;;;;;;;;;;8.90;99.90;;;;;;6158913;23;19927;-87
2022/04/19 06:39:38;;;;;;;;;;;8.90;99.90;;;;;;6137849;23;19925;-87
2022/04/19 06:42:13;;;;;;;;;;;9.00;99.90;;;;;;6162615;23;19921;-89
2022/04/19 06:45:02;;;;;;;;;;;9.00;99.90;;;;;;6139076;23;19931;-84
2022/04/19 06:47:35;;;;;;;;;;;9.10;99.90;;;;;;6114499;23;19928;-87
2022/04/19 06:50:11;;;;;;;;;;;9.20;99.90;;;;;;6139402;23;19924;-86
2022/04/19 06:52:42;;;;;;;;;;;9.30;99.90;;;;;;6163606;23;20241;-86
2022/04/19 06:55:36;;;;;;;;;;;9.40;99.90;;;;;;6137603;23;19924;-86
2022/04/19 06:58:13;;;;;;;;;;;10.90;99.90;;;;;;6162193;23;19921;-86
2022/04/19 07:00:46;;;;;;;;;;;9.50;99.90;;;;;;6113543;23;19928;-84
2022/04/19 07:03:15;;;;;;;;;;;9.60;99.90;;;;;;6138502;23;20030;-86
2022/04/19 07:06:07;;;;;;;;;;;9.70;99.90;;;;;;6158897;23;19925;-85
2022/04/19 07:08:38;;;;;;;;;;;9.80;99.90;;;;;;6167381;23;19921;-85
2022/04/19 07:11:08;;;;;;;;;;;9.80;99.90;;;;;;6168085;23;19935;-85
2022/04/19 07:13:57;;;;;;;;;;;10.00;99.90;;;;;;6138553;23;19945;-86
2022/04/19 07:16:51;;;;;;;;;;;10.00;99.90;;;;;;6154247;23;19927;-84
2022/04/19 07:19:21;;;;;;;;;;;10.20;99.90;;;;;;6146509;23;19925;-87
2022/04/19 07:27:42;;;;;;;;;;;10.50;99.90;;;;;;6138899;23;19921;-87
2022/04/19 07:30:13;;;;;;;;;;;11.30;99.90;;;;;;6160120;23;19931;-85
2022/04/19 07:32:47;;;;;;;;;;;9.80;99.90;;;;;;6140750;23;19921;-85
2022/04/19 07:35:36;;;;;;;;;;;10.70;99.90;;;;;;6164308;23;19925;-86
2022/04/19 07:38:06;;;;;;;;;;;10.80;99.90;;;;;;6137081;23;19921;-86
2022/04/19 07:40:52;;;;;;;;;;;10.90;99.90;;;;;;6163256;23;19935;-86
2022/04/19 07:43:21;;;;;;;;;;;11.00;99.90;;;;;;6161269;23;19925;-85
2022/04/19 07:45:48;;;;;;;;;;;11.10;99.90;;;;;;6112688;23;19924;-86
2022/04/19 07:48:18;;;;;;;;;;;11.20;99.90;;;;;;6112404;23;19921;-86
2022/04/19 07:50:48;;;;;;;;;;;11.30;99.90;;;;;;6142888;23;19931;-85
2022/04/19 07:53:38;;;;;;;;;;;11.40;99.90;;;;;;6139556;23;19925;-84
2022/04/19 07:56:20;;;;;;;;;;;11.50;99.80;;;;;;6136029;23;20153;-85
2022/04/19 07:58:55;;;;;;;;;;;11.70;99.70;;;;;;6142434;23;19924;-85
2022/04/19 08:01:24;;;;;;;;;;;11.80;99.60;;;;;;6138745;23;19925;-86
2022/04/19 08:03:54;;;;;;;;;;;11.90;99.50;;;;;;6136254;23;19932;-86
2022/04/19 08:06:23;;;;;;;;;;;12.00;99.20;;;;;;6164600;23;19935;-85
2022/04/19 08:09:06;;;;;;;;;;;12.10;99.40;;;;;;6153134;23;19928;-84
2022/04/19 08:11:34;;;;;;;;;;;12.30;99.30;;;;;;6132691;23;19925;-85
2022/04/19 08:14:03;;;;;;;;;;;12.30;98.90;;;;;;6162348;23;19921;-85
2022/04/19 08:16:32;;;;;;;;;;;12.40;99.00;;;;;;6113370;23;19932;-84
2022/04/19 08:19:04;;;;;;;;;;;12.50;98.60;;;;;;6109744;23;19928;-85
2022/04/19 08:21:32;;;;;;;;;;;12.60;98.60;;;;;;6163651;23;19921;-86
2022/04/19 08:24:08;;;;;;;;;;;12.70;98.50;;;;;;6136800;23;19931;-85
2022/04/19 08:26:37;;;;;;;;;;;12.70;98.20;;;;;;6137935;23;19928;-88
2022/04/19 08:29:09;;;;;;;;;;;12.80;98.20;;;;;;6162099;23;20360;-88
2022/04/19 08:31:37;;;;;;;;;;;12.90;98.20;;;;;;6162250;23;19921;-87
2022/04/19 08:34:06;;;;;;;;;;;13.00;98.00;;;;;;6108487;23;19921;-84
2022/04/19 08:36:41;;;;;;;;;;;13.10;98.00;;;;;;6137131;23;19925;-85
2022/04/19 08:39:23;;;;;;;;;;;13.20;97.90;;;;;;6155680;23;19928;-86
2022/04/19 08:41:50;;;;;;;;;;;13.30;97.90;;;;;;6109263;23;20353;-86
2022/04/19 08:44:20;;;;;;;;;;;13.30;97.60;;;;;;6158777;23;19939;-86
2022/04/19 08:47:17;;;;;;;;;;;13.40;97.40;;;;;;6087589;23;19927;-87
2022/04/19 08:49:46;;;;;;;;;;;13.50;97.40;;;;;;6163574;23;19921;-86
2022/04/19 08:52:16;;;;;;;;;;;13.70;97.30;;;;;;6135036;23;19927;-87
2022/04/19 08:57:35;;;;;;;;;;;13.80;97.10;;;;;;6139412;23;19925;-86
2022/04/19 09:00:05;;;;;;;;;;;13.90;96.50;;;;;;6136833;23;19935;-86
2022/04/19 09:02:41;;;;;;;;;;;14.00;96.70;;;;;;6113545;23;19931;-85
2022/04/19 09:05:17;;;;;;;;;;;14.00;96.90;;;;;;6140456;23;19927;-86
2022/04/19 09:07:46;;;;;;;;;;;14.10;96.80;;;;;;6150140;23;19921;-87
2022/04/19 09:10:25;;;;;;;;;;;14.10;96.90;;;;;;6135315;23;19925;-86
2022/04/19 09:12:59;;;;;;;;;;;14.20;96.70;;;;;;6162779;23;19925;-86
2022/04/19 09:15:33;;;;;;;;;;;14.30;96.60;;;;;;6131861;23;19921;-86
2022/04/19 09:18:02;;;;;;;;;;;14.40;96.70;;;;;;6159795;23;20320;-85
2022/04/19 09:20:31;;;;;;;;;;;14.70;96.60;;;;;;6137282;23;19931;-86
2022/04/19 09:23:01;;;;;;;;;;;14.60;96.50;;;;;;6135210;23;20324;-85
2022/04/19 09:25:32;;;;;;;;;;;14.60;96.20;;;;;;6137647;23;19932;-85
2022/04/19 09:28:02;;;;;;;;;;;14.60;96.20;;;;;;6157663;23;19929;-86
2022/04/19 09:30:34;;;;;;;;;;;14.70;96.30;;;;;;6133174;23;19925;-86
2022/04/19 09:33:14;;;;;;;;;;;14.70;95.80;;;;;;6140150;23;20470;-85
2022/04/19 09:35:50;;;;;;;;;;;14.80;96.00;;;;;;6155869;23;19924;-85
2022/04/19 09:38:35;;;;;;;;;;;15.00;96.00;;;;;;6138624;23;19931;-86
2022/04/19 09:41:05;;;;;;;;;;;14.90;95.80;;;;;;6132497;23;19927;-85
2022/04/19 09:44:06;;;;;;;;;;;14.80;96.00;;;;;;6132397;23;20249;-86
2022/04/19 09:46:36;;;;;;;;;;;14.90;95.50;;;;;;6156214;23;19921;-85
2022/04/19 09:49:08;;;;;;;;;;;15.00;95.50;;;;;;6165569;23;19921;-85
2022/04/19 09:51:37;;;;;;;;;;;14.80;95.60;;;;;;6148672;23;20000;-85
2022/04/19 09:54:20;;;;;;;;;;;15.10;95.20;;;;;;6171326;23;19927;-87
2022/04/19 09:56:48;;;;;;;;;;;15.10;95.30;;;;;;6168497;23;19921;-85
2022/04/19 09:59:24;;;;;;;;;;;15.20;95.10;;;;;;6137453;23;19931;-86
2022/04/19 10:10:45;;;;;;;;;;;15.30;94.30;;;;;;6166260;23;19925;-86
2022/04/19 10:13:25;;;;;;;;;;;15.30;94.30;;;;;;6137711;23;19931;-86
2022/04/19 10:16:12;;;;;;;;;;;15.30;94.00;;;;;;6119259;23;20016;-86
2022/04/19 10:18:46;;;;;;;;;;;15.40;94.00;;;;;;6136950;23;19924;-87
2022/04/19 10:21:19;;;;;;;;;;;15.30;94.00;;;;;;6114450;23;19921;-86
2022/04/19 10:24:10;;;;;;;;;;;15.40;93.80;;;;;;6111367;23;19927;-88
2022/04/19 10:26:47;;;;;;;;;;;15.40;93.70;;;;;;6113551;23;19924;-87
2022/04/19 10:29:15;;;;;;;;;;;15.50;93.60;;;;;;6137693;23;19921;-88
2022/04/19 10:32:04;;;;;;;;;;;15.50;93.10;;;;;;6113221;23;19921;-87
2022/04/19 10:34:44;;;;;;;;;;;16.30;93.90;;;;;;6138868;23;19925;-87
2022/04/19 10:37:23;;;;;;;;;;;15.50;93.30;;;;;;6113899;23;19924;-86
2022/04/19 10:40:03;;;;;;;;;;;15.50;93.30;;;;;;6135994;23;19921;-87
2022/04/19 10:42:35;;;;;;;;;;;15.50;93.30;;;;;;6117269;23;19931;-86
2022/04/19 10:45:14;;;;;;;;;;;15.50;93.30;;;;;;6108386;23;19927;-86
2022/04/19 10:47:58;;;;;;;;;;;15.50;93.50;;;;;;6140201;23;19931;-86
2022/04/19 10:51:00;;;;;;;;;;;15.40;93.20;;;;;;6090747;23;19921;-86
2022/04/19 10:53:51;;;;;;;;;;;15.50;93.30;;;;;;6112781;23;19931;-86
2022/04/19 10:56:21;;;;;;;;;;;15.50;93.10;;;;;;6110065;23;19925;-86
2022/04/19 10:58:49;;;;;;;;;;;15.50;93.20;;;;;;6133823;23;19920;-87
2022/04/19 11:01:29;;;;;;;;;;;15.60;93.20;;;;;;6133933;23;19920;-85
2022/04/19 11:03:58;;;;;;;;;;;15.60;93.00;;;;;;6109170;23;19927;-86
2022/04/19 11:06:33;;;;;;;;;;;15.80;92.90;;;;;;6134205;23;19936;-87
2022/04/19 11:09:16;;;;;;;;;;;15.70;93.10;;;;;;6085629;23;19931;-86
2022/04/19 11:11:54;;;;;;;;;;;15.80;93.10;;;;;;6084183;23;19931;-86
2022/04/19 11:14:21;;;;;;;;;;;15.90;92.70;;;;;;6123403;23;19921;-86
2022/04/19 11:16:51;;;;;;;;;;;16.00;93.00;;;;;;6133155;23;19935;-87
2022/04/19 11:19:23;;;;;;;;;;;16.10;92.70;;;;;;6135641;23;20230;-87
2022/04/19 11:21:59;;;;;;;;;;;16.10;92.80;;;;;;6140734;23;19921;-87
2022/04/19 11:24:48;;;;;;;;;;;16.20;93.00;;;;;;6111249;23;19921;-86
2022/04/19 11:27:19;;;;;;;;;;;16.30;93.10;;;;;;6159134;23;19921;-86
2022/04/19 11:30:10;;;;;;;;;;;16.30;93.20;;;;;;6164773;23;19925;-86
2022/04/19 11:32:39;;;;;;;;;;;16.30;93.20;;;;;;6147062;23;19919;-86
2022/04/19 11:35:16;;;;;;;;;;;16.30;93.30;;;;;;6148492;23;19931;-86
2022/04/19 11:37:45;;;;;;;;;;;16.30;93.40;;;;;;6142197;23;19936;-87
2022/04/19 11:48:53;;;;;;;;;;;16.60;93.40;;;;;;6161897;23;19950;-86
2022/04/19 11:51:23;;;;;;;;;;;16.80;93.20;;;;;;6141723;23;19924;-87
2022/04/19 11:54:19;;;;;;;;;;;16.90;92.80;;;;;;6162530;23;19921;-87
2022/04/19 11:57:03;;;;;;;;;;;17.10;92.90;;;;;;6160479;23;19936;-88
2022/04/19 11:59:39;;;;;;;;;;;17.20;92.60;;;;;;6137313;23;19931;-87
2022/04/19 12:02:25;;;;;;;;;;;17.20;92.50;;;;;;6138665;23;19927;-86
2022/04/19 12:04:55;;;;;;;;;;;17.20;92.80;;;;;;6162293;23;19921;-86
2022/04/19 12:07:27;;;;;;;;;;;17.30;92.90;;;;;;6137942;23;19925;-87
2022/04/19 12:09:59;;;;;;;;;;;17.40;93.00;;;;;;6141994;23;19920;-86
2022/04/19 12:12:30;;;;;;;;;;;17.50;92.80;;;;;;6171472;23;19929;-86
2022/04/19 12:15:06;;;;;;;;;;;17.50;92.30;;;;;;6149648;23;19928;-86
2022/04/19 12:17:42;;;;;;;;;;;17.60;92.30;;;;;;6150846;23;19925;-87
2022/04/19 12:20:14;;;;;;;;;;;17.70;92.30;;;;;;6142482;23;19925;-87
2022/04/19 12:22:46;;;;;;;;;;;17.90;92.20;;;;;;6098737;23;19927;-88
2022/04/19 12:25:24;;;;;;;;;;;18.00;91.70;;;;;;6148320;23;19927;-87
2022/04/19 12:27:58;;;;;;;;;;;18.00;92.00;;;;;;6119379;23;19923;-87
2022/04/19 12:30:28;;;;;;;;;;;18.20;92.20;;;;;;6124286;23;19921;-88
2022/04/19 12:33:06;;;;;;;;;;;18.30;91.90;;;;;;6143558;23;19925;-87
2022/04/19 12:35:52;;;;;;;;;;;18.50;91.90;;;;;;6139015;23;19921;-87
2022/04/19 12:38:32;;;;;;;;;;;18.60;91.00;;;;;;6140364;23;20898;-87
2022/04/19 12:41:02;;;;;;;;;;;18.70;89.50;;;;;;6143452;23;19921;-86
2022/04/19 12:43:43;;;;;;;;;;;18.80;90.10;;;;;;6090613;23;19927;-87
2022/04/19 12:46:14;;;;;;;;;;;18.70;89.90;;;;;;6112277;23;20447;-87
2022/04/19 12:49:09;;;;;;;;;;;18.70;90.10;;;;;;6137378;23;19921;-86
2022/04/19 12:51:39;;;;;;;;;;;18.70;90.30;;;;;;6111323;23;20599;-87
2022/04/19 12:54:07;;;;;;;;;;;18.80;90.40;;;;;;6141177;23;19921;-87
2022/04/19 12:56:36;;;;;;;;;;;18.90;90.30;;;;;;6142304;23;19921;-87
2022/04/19 12:59:07;;;;;;;;;;;18.90;89.80;;;;;;6088696;23;20252;-88
2022/04/19 13:01:36;;;;;;;;;;;19.00;88.90;;;;;;6113787;23;19921;-88
2022/04/19 13:04:06;;;;;;;;;;;19.10;88.80;;;;;;6088386;23;20329;-87
2022/04/19 13:12:26;;;;;;;;;;;19.50;83.60;;;;;;6114891;23;19921;-87
2022/04/19 13:15:01;;;;;;;;;;;19.50;83.10;;;;;;6131640;23;19924;-88
2022/04/19 13:17:33;;;;;;;;;;;19.40;82.50;;;;;;6141267;23;19929;-87
2022/04/19 13:20:04;;;;;;;;;;;19.40;83.60;;;;;;6161427;23;19931;-88
2022/04/19 13:22:43;;;;;;;;;;;19.50;84.10;;;;;;6138710;23;19931;-87
2022/04/19 13:25:13;;;;;;;;;;;19.70;84.20;;;;;;6160006;23;19920;-87
2022/04/19 13:27:44;;;;;;;;;;;19.80;84.00;;;;;;6158841;23;19931;-88
2022/04/19 13:30:18;;;;;;;;;;;19.80;83.10;;;;;;6156690;23;19921;-87
2022/04/19 13:32:54;;;;;;;;;;;19.80;82.70;;;;;;6158740;23;19925;-87
2022/04/19 13:35:22;;;;;;;;;;;19.80;83.40;;;;;;6139952;23;19944;-86
2022/04/19 13:40:38;;;;;;;;;;;19.60;83.10;;;;;;6159349;23;19944;-85
2022/04/19 13:43:07;;;;;;;;;;;19.50;83.30;;;;;;6161528;23;19921;-87
2022/04/19 13:45:49;;;;;;;;;;;19.30;83.80;;;;;;6140227;23;19921;-87
2022/04/19 13:48:20;;;;;;;;;;;19.10;83.40;;;;;;6140250;23;19921;-87
2022/04/19 13:50:54;;;;;;;;;;;19.00;83.30;;;;;;6164463;23;19932;-86
2022/04/19 13:53:25;;;;;;;;;;;18.80;83.50;;;;;;6137770;23;19925;-87
2022/04/19 13:55:58;;;;;;;;;;;18.70;83.60;;;;;;6162742;23;19943;-86
2022/04/19 13:58:36;;;;;;;;;;;18.60;84.90;;;;;;6142237;23;19925;-89
2022/04/19 14:01:12;;;;;;;;;;;18.50;84.50;;;;;;6134495;23;19927;-87
2022/04/19 14:03:41;;;;;;;;;;;17.40;84.00;;;;;;6139770;23;19931;-86
2022/04/19 14:06:16;;;;;;;;;;;18.50;85.10;;;;;;6168128;23;19921;-86
2022/04/19 14:08:43;;;;;;;;;;;18.60;85.90;;;;;;6162212;23;19929;-87
2022/04/19 14:11:11;;;;;;;;;;;18.60;86.30;;;;;;6137791;23;19944;-87
2022/04/19 14:13:41;;;;;;;;;;;18.60;86.30;;;;;;6136850;23;20172;-89
2022/04/19 14:16:13;;;;;;;;;;;18.60;86.20;;;;;;6135847;23;19935;-89
2022/04/19 14:18:45;;;;;;;;;;;18.70;86.80;;;;;;6113046;23;19921;-88
2022/04/19 14:21:29;;;;;;;;;;;18.80;87.10;;;;;;6093318;23;19921;-89
2022/04/19 14:24:01;;;;;;;;;;;18.80;87.10;;;;;;6122953;23;19919;-88
2022/04/19 14:26:35;;;;;;;;;;;18.80;87.10;;;;;;6145375;23;19923;-87
2022/04/19 14:34:44;;;;;;;;;;;18.60;87.10;;;;;;6121524;23;19913;-89
2022/04/19 14:37:29;;;;;;;;;;;18.50;87.10;;;;;;6128225;23;19927;-89
2022/04/19 14:40:08;;;;;;;;;;;18.40;88.00;;;;;;6142132;23;19931;-89
2022/04/19 14:42:46;;;;;;;;;;;18.30;87.80;;;;;;6114031;23;20338;-87
2022/04/19 14:45:23;;;;;;;;;;;18.30;87.70;;;;;;6116098;23;19935;-86
2022/04/19 14:47:51;;;;;;;;;;;18.20;88.20;;;;;;6144089;23;19927;-88
2022/04/19 14:50:21;;;;;;;;;;;18.30;87.60;;;;;;6065030;23;19928;-88
2022/04/19 14:53:00;;;;;;;;;;;18.30;87.50;;;;;;6121906;23;19924;-87
2022/04/19 14:55:32;;;;;;;;;;;18.40;87.20;;;;;;6124463;23;19931;-87
2022/04/19 14:58:08;;;;;;;;;;;18.40;87.90;;;;;;6141670;23;19931;-87
2022/04/19 15:00:37;;;;;;;;;;;18.40;86.80;;;;;;6091833;23;19921;-88
2022/04/19 15:03:10;;;;;;;;;;;18.40;87.20;;;;;;6114486;23;19931;-88
2022/04/19 15:06:12;;;;;;;;;;;18.60;86.70;;;;;;6117374;23;20345;-88
2022/04/19 15:08:48;;;;;;;;;;;18.60;86.50;;;;;;6135685;23;19927;-88
2022/04/19 15:11:17;;;;;;;;;;;18.70;86.20;;;;;;6111792;23;19917;-88
2022/04/19 15:14:09;;;;;;;;;;;18.70;86.40;;;;;;6136353;23;20011;-88
2022/04/19 15:16:44;;;;;;;;;;;18.70;86.20;;;;;;6064543;23;19928;-88
2022/04/19 15:19:13;;;;;;;;;;;18.80;85.70;;;;;;6138907;23;20269;-88
2022/04/19 15:21:50;;;;;;;;;;;18.90;86.30;;;;;;6139072;23;19909;-88
2022/04/19 15:24:33;;;;;;;;;;;19.10;86.00;;;;;;6099336;23;20691;-89
2022/04/19 15:27:02;;;;;;;;;;;19.20;85.70;;;;;;6092952;23;19927;-88
2022/04/19 15:29:40;;;;;;;;;;;19.30;85.50;;;;;;6138979;23;19927;-87
2022/04/19 15:32:18;;;;;;;;;;;19.30;84.90;;;;;;6115977;23;19936;-87
2022/04/19 15:34:55;;;;;;;;;;;19.20;85.60;;;;;;6094829;23;19925;-88
2022/04/19 15:38:09;;;;;;;;;;;20.30;87.10;;;;;;6138169;23;19909;-87
2022/04/19 15:40:42;;;;;;;;;;;19.70;85.70;;;;;;6115686;23;19925;-87
2022/04/19 15:43:39;;;;;;;;;;;19.50;85.30;;;;;;6112942;23;19921;-87
2022/04/19 15:46:24;;;;;;;;;;;19.40;85.70;;;;;;6137568;23;19931;-86
2022/04/19 15:49:00;;;;;;;;;;;19.30;86.40;;;;;;6121162;23;19931;-86
2022/04/19 15:51:28;;;;;;;;;;;19.20;86.20;;;;;;6139576;23;19932;-86
2022/04/19 15:53:59;;;;;;;;;;;19.20;86.70;;;;;;6087706;23;19925;-87
2022/04/19 15:56:36;;;;;;;;;;;19.20;86.70;;;;;;6061003;23;19929;-87
2022/04/19 15:59:04;;;;;;;;;;;19.20;86.20;;;;;;6117264;23;19921;-87
2022/04/19 16:01:35;;;;;;;;;;;19.30;86.40;;;;;;6135604;23;19947;-88